createdAt,value
2022-08-30T00:02:06.086Z,71.10
2022-08-30T00:04:33.046Z,71.65
2022-08-30T00:07:00.105Z,71.28
2022-08-30T00:09:27.002Z,71.16
2022-08-30T00:11:54.130Z,71.26
2022-08-30T00:14:20.964Z,71.47
2022-08-30T00:16:47.864Z,70.92
2022-08-30T00:19:14.811Z,70.82
2022-08-30T00:21:41.785Z,70.99
2022-08-30T00:24:08.709Z,70.91
2022-08-30T00:26:35.570Z,70.83
2022-08-30T00:29:02.561Z,71.32
2022-08-30T00:31:29.542Z,71.58
2022-08-30T00:33:56.398Z,72.04
2022-08-30T00:36:23.307Z,71.59
2022-08-30T00:38:50.145Z,71.69
2022-08-30T00:41:17.017Z,71.63
2022-08-30T00:43:43.903Z,71.94
2022-08-30T00:46:10.897Z,71.28
2022-08-30T00:48:41.242Z,71.65
2022-08-30T00:51:10.220Z,71.57
2022-08-30T00:53:40.076Z,71.40
2022-08-30T00:56:07.608Z,71.50
2022-08-30T00:58:37.255Z,71.83
2022-08-30T01:01:06.931Z,71.76
2022-08-30T01:03:34.364Z,71.95
2022-08-30T01:06:02.003Z,72.21
2022-08-30T01:08:29.098Z,72.10
2022-08-30T01:10:57.537Z,71.48
2022-08-30T01:13:26.276Z,71.10
2022-08-30T01:15:54.009Z,70.77
2022-08-30T01:18:23.371Z,71.80
2022-08-30T01:21:00.750Z,71.31
2022-08-30T01:23:29.002Z,71.96
2022-08-30T01:25:57.165Z,71.25
2022-08-30T01:28:26.364Z,71.64
2022-08-30T01:30:53.647Z,71.79
2022-08-30T01:33:21.948Z,71.76
2022-08-30T01:35:57.472Z,71.66
2022-08-30T01:38:28.116Z,71.58
2022-08-30T01:41:14.363Z,71.27
2022-08-30T01:43:41.621Z,72.16
2022-08-30T01:46:11.189Z,71.42
2022-08-30T01:48:40.134Z,71.46
2022-08-30T01:51:12.149Z,72.09
2022-08-30T01:53:40.508Z,71.82
2022-08-30T01:56:08.041Z,71.78
2022-08-30T01:58:36.599Z,71.59
2022-08-30T02:01:09.917Z,71.60
2022-08-30T02:03:37.510Z,71.36
2022-08-30T02:06:10.227Z,71.92
2022-08-30T02:08:38.003Z,71.76
2022-08-30T02:11:06.819Z,71.89
2022-08-30T02:13:35.587Z,71.82
2022-08-30T02:16:02.482Z,71.34
2022-08-30T02:18:29.373Z,71.28
2022-08-30T02:20:56.221Z,71.89
2022-08-30T02:23:23.119Z,71.39
2022-08-30T02:25:50.004Z,71.31
2022-08-30T02:28:18.449Z,72.13
2022-08-30T02:30:46.436Z,72.09
2022-08-30T02:33:13.465Z,71.70
2022-08-30T02:35:40.521Z,71.85
2022-08-30T02:38:07.418Z,71.96
2022-08-30T02:40:34.719Z,71.76
2022-08-30T02:43:01.735Z,71.68
2022-08-30T02:45:28.700Z,72.05
2022-08-30T02:47:56.834Z,71.63
2022-08-30T02:50:24.641Z,71.44
2022-08-30T02:52:52.032Z,71.86
2022-08-30T02:55:21.149Z,71.74
2022-08-30T02:57:48.022Z,72.03
2022-08-30T03:00:17.486Z,71.59
2022-08-30T03:02:44.541Z,72.09
2022-08-30T03:05:13.349Z,71.86
2022-08-30T03:07:41.537Z,71.91
2022-08-30T03:10:09.264Z,71.81
2022-08-30T03:12:36.501Z,71.85
2022-08-30T03:15:08.041Z,71.61
2022-08-30T03:17:34.960Z,71.43
2022-08-30T03:20:02.484Z,71.88
2022-08-30T03:22:29.943Z,72.21
2022-08-30T03:25:01.556Z,72.38
2022-08-30T03:27:29.667Z,72.11
2022-08-30T03:29:56.800Z,71.50
2022-08-30T03:32:23.954Z,71.68
2022-08-30T03:34:51.082Z,72.18
2022-08-30T03:37:17.995Z,71.66
2022-08-30T03:39:45.698Z,71.82
2022-08-30T03:42:13.050Z,71.99
2022-08-30T03:44:40.110Z,72.50
2022-08-30T03:47:08.654Z,72.49
2022-08-30T03:49:35.679Z,72.25
2022-08-30T03:52:02.924Z,72.03
2022-08-30T03:54:29.837Z,72.33
2022-08-30T03:56:56.741Z,72.49
2022-08-30T03:59:23.913Z,72.42
2022-08-30T04:01:51.018Z,72.05
2022-08-30T04:04:20.884Z,72.09
2022-08-30T04:06:48.676Z,72.39
2022-08-30T04:09:15.591Z,72.22
2022-08-30T04:11:42.714Z,72.18
2022-08-30T04:14:09.648Z,71.86
2022-08-30T04:16:36.828Z,72.01
2022-08-30T04:19:04.315Z,72.15
2022-08-30T04:21:31.880Z,71.79
2022-08-30T04:23:59.145Z,72.28
2022-08-30T04:26:29.255Z,71.88
2022-08-30T04:28:56.827Z,71.84
2022-08-30T04:31:24.070Z,71.56
2022-08-30T04:33:51.136Z,71.69
2022-08-30T04:36:17.984Z,72.08
2022-08-30T04:38:44.848Z,71.87
2022-08-30T04:41:19.219Z,72.07
2022-08-30T04:43:47.409Z,72.15
2022-08-30T04:46:14.610Z,72.68
2022-08-30T04:48:41.625Z,72.45
2022-08-30T04:51:11.381Z,72.28
2022-08-30T04:53:38.312Z,72.44
2022-08-30T04:56:16.610Z,72.26
2022-08-30T04:58:47.569Z,72.21
2022-08-30T05:01:25.597Z,72.07
2022-08-30T05:03:53.989Z,72.35
2022-08-30T05:06:22.290Z,72.25
2022-08-30T05:08:50.001Z,72.13
2022-08-30T05:11:17.291Z,72.05
2022-08-30T05:13:44.849Z,71.95
2022-08-30T05:16:17.754Z,71.85
2022-08-30T05:18:45.905Z,71.92
2022-08-30T05:21:19.288Z,71.87
2022-08-30T05:23:46.816Z,72.44
2022-08-30T05:26:21.945Z,72.01
2022-08-30T05:28:50.283Z,72.05
2022-08-30T05:31:19.103Z,72.48
2022-08-30T05:33:46.565Z,72.06
2022-08-30T05:36:15.016Z,72.21
2022-08-30T05:38:42.540Z,72.06
2022-08-30T05:41:10.714Z,71.49
2022-08-30T05:43:38.847Z,72.27
2022-08-30T05:46:09.336Z,72.47
2022-08-30T05:48:36.915Z,72.53
2022-08-30T05:51:09.358Z,72.27
2022-08-30T05:53:36.473Z,72.70
2022-08-30T05:56:05.805Z,72.63
2022-08-30T05:58:33.573Z,73.27
2022-08-30T06:01:00.789Z,73.15
2022-08-30T06:03:28.432Z,72.45
2022-08-30T06:05:55.581Z,73.03
2022-08-30T06:08:22.551Z,73.38
2022-08-30T06:10:49.439Z,73.19
2022-08-30T06:13:16.429Z,72.71
2022-08-30T06:15:47.457Z,73.37
2022-08-30T06:18:14.505Z,73.81
2022-08-30T06:20:50.846Z,73.36
2022-08-30T06:23:18.193Z,73.38
2022-08-30T06:25:45.412Z,73.27
2022-08-30T06:28:13.419Z,73.22
2022-08-30T06:30:42.233Z,74.15
2022-08-30T06:33:10.447Z,73.51
2022-08-30T06:35:46.716Z,73.73
2022-08-30T06:38:19.227Z,73.84
2022-08-30T06:40:46.122Z,73.38
2022-08-30T06:43:13.179Z,73.08
2022-08-30T06:45:40.027Z,73.31
2022-08-30T06:48:06.860Z,73.40
2022-08-30T06:50:33.749Z,73.35
2022-08-30T06:53:06.015Z,74.01
2022-08-30T06:55:36.374Z,73.36
2022-08-30T06:58:04.159Z,73.52
2022-08-30T07:00:31.266Z,72.77
2022-08-30T07:02:58.367Z,73.29
2022-08-30T07:05:25.296Z,72.96
2022-08-30T07:07:54.390Z,73.33
2022-08-30T07:10:21.888Z,73.04
2022-08-30T07:12:49.717Z,72.71
2022-08-30T07:15:21.460Z,72.58
2022-08-30T07:18:06.730Z,72.32
2022-08-30T07:20:40.289Z,72.24
2022-08-30T07:23:09.094Z,72.35
2022-08-30T07:25:40.469Z,72.19
2022-08-30T07:28:09.596Z,71.56
2022-08-30T07:30:36.758Z,72.10
2022-08-30T07:33:03.941Z,72.10
2022-08-30T07:35:31.904Z,72.68
2022-08-30T07:37:59.219Z,72.43
2022-08-30T07:40:28.935Z,72.53
2022-08-30T07:42:55.841Z,72.23
2022-08-30T07:45:23.247Z,71.97
2022-08-30T07:47:50.092Z,72.47
2022-08-30T07:50:17.019Z,72.36
2022-08-30T07:52:44.684Z,71.47
2022-08-30T07:55:11.802Z,71.92
2022-08-30T07:57:38.653Z,71.83
2022-08-30T08:00:06.623Z,70.76
2022-08-30T08:02:33.881Z,70.46
2022-08-30T08:05:01.029Z,70.78
2022-08-30T08:07:27.916Z,70.96
2022-08-30T08:09:54.754Z,70.09
2022-08-30T08:12:21.712Z,70.53
2022-08-30T08:14:48.599Z,70.05
2022-08-30T08:17:15.440Z,69.65
2022-08-30T08:19:42.413Z,69.42
2022-08-30T08:22:20.685Z,69.16
2022-08-30T08:24:49.178Z,69.45
2022-08-30T08:27:16.681Z,69.27
2022-08-30T08:29:43.695Z,69.16
2022-08-30T08:32:10.601Z,69.16
2022-08-30T08:34:37.518Z,68.27
2022-08-30T08:37:05.344Z,68.59
2022-08-30T08:39:32.287Z,68.25
2022-08-30T08:42:20.998Z,68.22
2022-08-30T08:44:54.820Z,68.28
2022-08-30T08:47:30.873Z,67.84
2022-08-30T08:50:03.353Z,68.07
2022-08-30T08:53:07.170Z,68.14
2022-08-30T08:55:34.510Z,67.83
2022-08-30T08:58:01.984Z,67.35
2022-08-30T09:00:30.243Z,67.32
2022-08-30T09:02:59.720Z,67.32
2022-08-30T09:05:30.583Z,66.77
2022-08-30T09:08:10.208Z,67.35
2022-08-30T09:10:49.793Z,66.94
2022-08-30T09:13:19.048Z,67.42
2022-08-30T09:15:51.025Z,67.08
2022-08-30T09:18:21.781Z,67.55
2022-08-30T09:20:50.292Z,67.36
2022-08-30T09:23:17.497Z,67.11
2022-08-30T09:25:54.057Z,67.58
2022-08-30T09:28:29.630Z,67.61
2022-08-30T09:31:06.807Z,67.05
2022-08-30T09:33:37.302Z,67.00
2022-08-30T09:36:14.987Z,66.52
2022-08-30T09:38:42.128Z,67.00
2022-08-30T09:41:37.022Z,66.98
2022-08-30T09:44:16.760Z,66.62
2022-08-30T09:46:57.069Z,66.93
2022-08-30T09:49:43.310Z,66.77
2022-08-30T09:52:31.037Z,66.78
2022-08-30T09:55:37.083Z,67.08
2022-08-30T09:58:17.201Z,66.55
2022-08-30T10:01:20.989Z,66.66
2022-08-30T10:04:17.580Z,66.66
2022-08-30T10:06:54.621Z,65.49
2022-08-30T10:09:49.866Z,65.68
2022-08-30T10:12:26.985Z,64.90
2022-08-30T10:15:15.535Z,64.83
2022-08-30T10:17:51.469Z,64.37
2022-08-30T10:20:33.931Z,64.24
2022-08-30T10:23:07.755Z,64.04
2022-08-30T10:25:37.843Z,63.77
2022-08-30T10:28:06.576Z,63.26
2022-08-30T10:30:36.595Z,63.08
2022-08-30T10:33:18.092Z,63.20
2022-08-30T10:35:52.885Z,63.25
2022-08-30T10:38:36.698Z,63.21
2022-08-30T10:41:28.018Z,62.98
2022-08-30T10:44:07.935Z,63.04
2022-08-30T10:47:14.493Z,62.95
2022-08-30T10:49:54.689Z,62.64
2022-08-30T10:52:29.674Z,62.35
2022-08-30T10:55:08.681Z,62.08
2022-08-30T10:57:37.310Z,61.85
2022-08-30T11:00:10.997Z,61.72
2022-08-30T11:02:59.215Z,62.14
2022-08-30T11:05:29.060Z,62.30
2022-08-30T11:08:23.009Z,62.58
2022-08-30T11:11:24.043Z,62.22
2022-08-30T11:13:54.619Z,62.42
2022-08-30T11:16:38.788Z,62.31
2022-08-30T11:19:16.102Z,62.22
2022-08-30T11:21:46.953Z,62.37
2022-08-30T11:24:17.518Z,61.66
2022-08-30T11:26:47.143Z,61.80
2022-08-30T11:29:37.350Z,61.38
2022-08-30T11:32:13.674Z,60.78
2022-08-30T11:34:49.467Z,61.27
2022-08-30T11:37:33.899Z,61.04
2022-08-30T11:40:01.980Z,61.29
2022-08-30T11:42:32.838Z,60.97
2022-08-30T11:45:24.824Z,60.74
2022-08-30T11:47:57.121Z,60.03
2022-08-30T11:50:47.796Z,60.35
2022-08-30T11:53:42.778Z,59.49
2022-08-30T11:56:21.433Z,59.41
2022-08-30T11:58:55.072Z,59.17
2022-08-30T12:01:50.508Z,59.21
2022-08-30T12:04:17.459Z,57.91
2022-08-30T12:06:53.779Z,58.02
2022-08-30T12:09:20.655Z,58.03
2022-08-30T12:12:02.569Z,57.59
2022-08-30T12:14:41.177Z,57.91
2022-08-30T12:17:34.197Z,57.04
2022-08-30T12:20:01.272Z,56.38
2022-08-30T12:22:30.691Z,56.55
2022-08-30T12:24:58.009Z,56.73
2022-08-30T12:27:33.417Z,56.17
2022-08-30T12:30:04.493Z,56.46
2022-08-30T12:32:31.875Z,56.06
2022-08-30T12:35:02.475Z,56.37
2022-08-30T12:37:42.197Z,55.51
2022-08-30T12:40:19.742Z,55.25
2022-08-30T12:43:00.938Z,54.88
2022-08-30T12:45:31.469Z,55.46
2022-08-30T12:48:07.528Z,55.09
2022-08-30T12:50:37.851Z,54.81
2022-08-30T12:53:11.707Z,54.71
2022-08-30T12:55:59.726Z,54.25
2022-08-30T12:58:42.733Z,53.80
2022-08-30T13:01:18.638Z,53.67
2022-08-30T13:04:21.587Z,54.11
2022-08-30T13:06:58.555Z,53.55
2022-08-30T13:09:35.952Z,53.21
2022-08-30T13:12:07.904Z,53.11
2022-08-30T13:14:45.175Z,53.25
2022-08-30T13:17:25.303Z,53.32
2022-08-30T13:20:12.451Z,52.82
2022-08-30T13:22:41.675Z,53.12
2022-08-30T13:25:10.620Z,53.56
2022-08-30T13:27:38.879Z,52.76
2022-08-30T13:30:13.587Z,51.54
2022-08-30T13:32:41.111Z,51.57
2022-08-30T13:35:08.881Z,50.31
2022-08-30T13:37:52.052Z,50.52
2022-08-30T13:40:21.186Z,50.66
2022-08-30T13:42:48.942Z,50.75
2022-08-30T13:48:04.798Z,49.78
2022-08-30T13:50:33.399Z,49.31
2022-08-30T13:53:00.719Z,49.60
2022-08-30T13:55:28.325Z,49.10
2022-08-30T13:57:56.668Z,49.99
2022-08-30T14:00:25.368Z,49.32
2022-08-30T14:02:59.838Z,49.16
2022-08-30T14:05:51.025Z,50.12
2022-08-30T14:08:45.311Z,49.85
2022-08-30T14:11:18.366Z,49.31
2022-08-30T14:16:34.011Z,49.29
2022-08-30T14:19:01.518Z,48.38
2022-08-30T14:21:28.570Z,49.06
2022-08-30T14:23:57.709Z,49.38
2022-08-30T14:26:33.012Z,48.86
2022-08-30T14:29:02.586Z,48.75
2022-08-30T14:31:32.884Z,48.70
2022-08-30T14:34:02.051Z,49.54
2022-08-30T14:36:30.879Z,49.26
2022-08-30T14:38:58.577Z,48.79
2022-08-30T14:41:25.950Z,48.99
2022-08-30T14:43:53.006Z,49.20
2022-08-30T14:46:20.081Z,48.93
2022-08-30T14:48:47.123Z,48.85
2022-08-30T14:51:20.019Z,49.17
2022-08-30T14:53:47.764Z,49.60
2022-08-30T14:56:17.369Z,49.11
2022-08-30T14:58:49.045Z,48.83
2022-08-30T15:01:16.009Z,48.12
2022-08-30T15:03:43.003Z,48.01
2022-08-30T15:06:10.749Z,48.44
2022-08-30T15:08:38.018Z,48.56
2022-08-30T15:11:11.862Z,48.72
2022-08-30T15:13:39.828Z,50.53
2022-08-30T15:16:11.769Z,51.75
2022-08-30T15:18:38.986Z,52.39
2022-08-30T15:21:09.714Z,52.72
2022-08-30T15:23:37.665Z,52.78
2022-08-30T15:26:07.139Z,53.44
2022-08-30T15:28:35.085Z,53.47
2022-08-30T15:31:06.258Z,52.88
2022-08-30T15:33:36.902Z,52.50
2022-08-30T15:36:05.383Z,52.50
2022-08-30T15:38:33.297Z,52.60
2022-08-30T15:41:03.718Z,52.74
2022-08-30T15:43:31.620Z,52.09
2022-08-30T15:46:29.416Z,51.84
2022-08-30T15:49:00.421Z,51.86
2022-08-30T15:51:28.090Z,51.85
2022-08-30T15:53:55.143Z,51.66
2022-08-30T15:56:22.287Z,51.50
2022-08-30T15:58:49.324Z,51.86
2022-08-30T16:01:19.987Z,52.48
2022-08-30T16:03:57.461Z,52.13
2022-08-30T16:06:38.525Z,52.92
2022-08-30T16:09:07.367Z,52.70
2022-08-30T16:11:34.968Z,53.58
2022-08-30T16:14:02.060Z,51.79
2022-08-30T16:16:31.289Z,52.44
2022-08-30T16:18:59.371Z,52.21
2022-08-30T16:21:29.183Z,52.51
2022-08-30T16:23:58.800Z,52.48
2022-08-30T16:26:26.516Z,52.82
2022-08-30T16:28:54.240Z,51.97
2022-08-30T16:31:22.536Z,52.62
2022-08-30T16:33:52.417Z,53.28
2022-08-30T16:36:21.336Z,52.00
2022-08-30T16:38:49.999Z,52.77
2022-08-30T16:41:21.970Z,53.40
2022-08-30T16:43:50.219Z,53.42
2022-08-30T16:46:27.228Z,53.96
2022-08-30T16:48:57.211Z,54.76
2022-08-30T16:51:27.071Z,54.83
2022-08-30T16:53:58.597Z,55.31
2022-08-30T16:56:27.323Z,54.65
2022-08-30T16:59:01.311Z,55.22
2022-08-30T17:01:31.901Z,55.10
2022-08-30T17:03:59.017Z,55.30
2022-08-30T17:06:26.377Z,55.54
2022-08-30T17:08:56.539Z,56.06
2022-08-30T17:11:24.625Z,55.76
2022-08-30T17:13:51.976Z,55.29
2022-08-30T17:16:22.748Z,55.74
2022-08-30T17:18:55.205Z,56.36
2022-08-30T17:21:22.102Z,56.49
2022-08-30T17:23:50.297Z,56.31
2022-08-30T17:26:18.691Z,56.05
2022-08-30T17:28:45.866Z,56.15
2022-08-30T17:34:03.527Z,56.58
2022-08-30T17:36:32.482Z,56.88
2022-08-30T17:38:59.434Z,56.78
2022-08-30T17:41:26.364Z,56.77
2022-08-30T17:43:54.034Z,56.93
2022-08-30T17:46:21.574Z,56.93
2022-08-30T17:48:56.513Z,57.39
2022-08-30T17:51:25.070Z,56.82
2022-08-30T17:53:51.985Z,57.55
2022-08-30T17:56:19.456Z,57.06
2022-08-30T17:58:47.643Z,57.89
2022-08-30T18:01:15.474Z,57.14
2022-08-30T18:03:45.565Z,57.56
2022-08-30T18:06:13.492Z,58.11
2022-08-30T18:08:40.882Z,58.00
2022-08-30T18:11:08.717Z,58.09
2022-08-30T18:13:35.758Z,58.26
2022-08-30T18:16:03.473Z,58.14
2022-08-30T18:18:31.309Z,58.89
2022-08-30T18:20:59.124Z,58.62
2022-08-30T18:23:27.159Z,58.63
2022-08-30T18:25:59.953Z,58.94
2022-08-30T18:28:28.104Z,59.45
2022-08-30T18:30:58.509Z,59.67
2022-08-30T18:33:26.766Z,59.59
2022-08-30T18:35:55.978Z,60.37
2022-08-30T18:38:23.922Z,60.04
2022-08-30T18:40:52.122Z,60.85
2022-08-30T18:43:22.931Z,61.17
2022-08-30T18:45:57.280Z,61.33
2022-08-30T18:48:24.222Z,61.34
2022-08-30T18:50:54.206Z,61.52
2022-08-30T18:53:29.114Z,61.87
2022-08-30T18:55:56.952Z,62.14
2022-08-30T18:58:24.093Z,62.15
2022-08-30T19:00:51.036Z,62.07
2022-08-30T19:03:18.925Z,62.72
2022-08-30T19:05:46.711Z,62.74
2022-08-30T19:08:14.431Z,62.67
2022-08-30T19:10:41.615Z,63.01
2022-08-30T19:13:09.905Z,63.08
2022-08-30T19:15:37.778Z,63.06
2022-08-30T19:18:16.747Z,63.73
2022-08-30T19:20:45.619Z,63.45
2022-08-30T19:23:14.614Z,64.21
2022-08-30T19:25:42.378Z,63.95
2022-08-30T19:28:09.788Z,64.30
2022-08-30T19:30:36.960Z,64.44
2022-08-30T19:33:04.080Z,64.29
2022-08-30T19:35:32.768Z,64.36
2022-08-30T19:37:59.757Z,64.52
2022-08-30T19:40:26.890Z,64.70
2022-08-30T19:42:53.933Z,64.76
2022-08-30T19:45:21.918Z,65.15
2022-08-30T19:47:50.251Z,64.88
2022-08-30T19:50:17.699Z,65.13
2022-08-30T19:52:48.398Z,65.22
2022-08-30T19:55:23.776Z,65.70
2022-08-30T19:57:56.068Z,65.87
2022-08-30T20:00:23.561Z,66.58
2022-08-30T20:02:51.324Z,66.62
2022-08-30T20:05:19.202Z,66.01
2022-08-30T20:07:51.018Z,66.13
2022-08-30T20:10:20.799Z,66.16
2022-08-30T20:12:52.837Z,66.13
2022-08-30T20:15:19.730Z,65.99
2022-08-30T20:18:05.359Z,66.84
2022-08-30T20:20:33.796Z,66.95
2022-08-30T20:23:04.698Z,66.88
2022-08-30T20:24:23.739Z,56.13
2022-08-30T20:25:31.884Z,66.33
2022-08-30T20:27:59.599Z,66.65
2022-08-30T20:30:27.318Z,67.32
2022-08-30T20:32:54.432Z,66.96
2022-08-30T20:35:21.815Z,65.95
2022-08-30T20:37:49.460Z,66.18
2022-08-30T20:40:16.625Z,66.31
2022-08-30T20:42:46.557Z,66.77
2022-08-30T20:45:15.312Z,66.84
2022-08-30T20:47:43.168Z,66.56
2022-08-30T20:50:14.846Z,66.32
2022-08-30T20:52:42.197Z,66.86
2022-08-30T20:55:10.326Z,66.49
2022-08-30T20:57:37.390Z,66.43
2022-08-30T21:00:08.192Z,66.40
2022-08-30T21:02:37.417Z,66.62
2022-08-30T21:05:15.587Z,66.36
2022-08-30T21:07:46.570Z,66.22
2022-08-30T21:10:14.266Z,66.98
2022-08-30T21:12:43.012Z,66.95
2022-08-30T21:15:33.855Z,66.98
2022-08-30T21:17:57.156Z,66.63
2022-08-30T21:20:24.026Z,66.58
2022-08-30T21:23:02.631Z,66.88
2022-08-30T21:25:34.385Z,66.83
2022-08-30T21:28:01.475Z,66.67
2022-08-30T21:30:28.388Z,66.64
2022-08-30T21:32:55.379Z,66.99
2022-08-30T21:35:46.315Z,66.89
2022-08-30T21:38:13.256Z,66.55
2022-08-30T21:40:40.255Z,67.40
2022-08-30T21:43:07.924Z,67.38
2022-08-30T21:45:41.780Z,66.92
2022-08-30T21:48:08.918Z,66.91
2022-08-30T21:50:38.586Z,66.91
2022-08-30T21:53:06.227Z,67.25
2022-08-30T21:55:33.408Z,67.63
2022-08-30T21:58:00.400Z,67.75
2022-08-30T22:00:27.244Z,67.33
2022-08-30T22:02:54.600Z,66.73
2022-08-30T22:05:21.696Z,66.42
2022-08-30T22:07:48.524Z,66.51
2022-08-30T22:10:15.516Z,66.42
2022-08-30T22:12:42.403Z,66.12
2022-08-30T22:15:10.594Z,67.14
2022-08-30T22:17:37.429Z,67.20
2022-08-30T22:20:06.056Z,66.50
2022-08-30T22:22:33.078Z,66.93
2022-08-30T22:24:59.919Z,66.99
2022-08-30T22:27:26.860Z,66.85
2022-08-30T22:29:53.707Z,66.45
2022-08-30T22:32:21.655Z,66.34
2022-08-30T22:34:49.942Z,67.06
2022-08-30T22:37:16.921Z,67.56
2022-08-30T22:39:43.800Z,67.81
2022-08-30T22:42:10.746Z,67.27
2022-08-30T22:44:37.641Z,66.83
2022-08-30T22:47:04.693Z,67.17
2022-08-30T22:49:31.624Z,67.43
2022-08-30T22:51:58.533Z,67.47
2022-08-30T22:54:25.479Z,67.22
2022-08-30T22:56:52.327Z,67.12
2022-08-30T22:59:19.240Z,66.67
2022-08-30T23:01:47.252Z,67.11
2022-08-30T23:04:14.201Z,67.20
2022-08-30T23:06:41.617Z,66.36
2022-08-30T23:09:16.674Z,66.51
2022-08-30T23:11:43.565Z,66.81
2022-08-30T23:14:10.624Z,66.55
2022-08-30T23:16:38.087Z,66.42
2022-08-30T23:19:05.266Z,67.07
2022-08-30T23:21:32.232Z,67.53
2022-08-30T23:24:18.476Z,67.63
2022-08-30T23:27:06.043Z,67.47
2022-08-30T23:29:52.033Z,67.48
2022-08-30T23:32:38.219Z,68.12
2022-08-30T23:35:29.351Z,67.20
2022-08-30T23:38:16.731Z,67.20
2022-08-30T23:41:02.264Z,68.03
2022-08-30T23:43:47.832Z,67.98
2022-08-30T23:46:33.369Z,67.61
2022-08-30T23:49:19.037Z,67.25
2022-08-30T23:52:04.529Z,67.33
2022-08-30T23:54:50.196Z,66.89
2022-08-30T23:57:35.650Z,67.10
